createdAt,value
2019-06-10T00:00:42.046Z,4.42
2019-06-10T00:03:11.596Z,4.40
2019-06-10T00:05:41.473Z,5.60
2019-06-10T00:08:11.968Z,5.05
2019-06-10T00:10:42.069Z,4.97
2019-06-10T00:13:11.793Z,5.12
2019-06-10T00:15:41.041Z,4.95
2019-06-10T00:18:33.397Z,4.05
2019-06-10T00:20:40.943Z,4.12
2019-06-10T00:23:12.112Z,3.08
2019-06-10T00:25:41.455Z,3.62
2019-06-10T00:28:12.161Z,3.62
2019-06-10T00:30:41.103Z,3.85
2019-06-10T00:33:12.361Z,3.95
2019-06-10T00:35:41.149Z,4.72
2019-06-10T00:38:13.861Z,3.42
2019-06-10T00:40:41.477Z,3.83
2019-06-10T00:43:13.214Z,5.17
2019-06-10T00:45:41.030Z,4.05
2019-06-10T00:48:20.167Z,3.83
2019-06-10T00:50:41.560Z,5.03
2019-06-10T00:53:14.272Z,4.15
2019-06-10T00:55:41.429Z,4.25
2019-06-10T00:58:13.407Z,4.65
2019-06-10T01:00:41.357Z,4.87
2019-06-10T01:03:14.598Z,4.12
2019-06-10T01:05:42.139Z,3.90
2019-06-10T01:08:13.842Z,5.45
2019-06-10T01:10:43.678Z,5.03
2019-06-10T01:13:13.223Z,5.95
2019-06-10T01:15:41.849Z,6.10
2019-06-10T01:18:30.478Z,5.30
2019-06-10T01:20:41.231Z,5.37
2019-06-10T01:23:13.768Z,4.45
2019-06-10T01:25:42.184Z,5.17
2019-06-10T01:28:14.671Z,5.60
2019-06-10T01:30:41.257Z,5.72
2019-06-10T01:33:11.411Z,5.92
2019-06-10T01:35:41.523Z,6.08
2019-06-10T01:38:12.799Z,5.62
2019-06-10T01:40:42.097Z,6.42
2019-06-10T01:43:13.994Z,6.10
2019-06-10T01:45:42.412Z,7.50
2019-06-10T01:48:12.033Z,6.45
2019-06-10T01:50:41.098Z,6.45
2019-06-10T01:53:13.556Z,7.30
2019-06-10T01:55:41.942Z,7.80
2019-06-10T01:58:13.232Z,7.67
2019-06-10T02:01:01.283Z,8.75
2019-06-10T02:03:31.455Z,8.70
2019-06-10T02:06:01.442Z,8.58
2019-06-10T02:08:31.592Z,7.60
2019-06-10T02:13:33.202Z,6.55
2019-06-10T02:16:03.755Z,7.87
2019-06-10T02:18:32.402Z,7.47
2019-06-10T02:21:01.280Z,8.98
2019-06-10T02:23:31.537Z,7.20
2019-06-10T02:26:01.475Z,8.03
2019-06-10T02:28:31.871Z,8.10
2019-06-10T02:31:03.073Z,7.80
2019-06-10T02:33:36.007Z,8.13
2019-06-10T02:36:03.932Z,6.42
2019-06-10T02:38:35.569Z,8.23
2019-06-10T02:41:04.062Z,7.95
2019-06-10T02:43:36.799Z,7.15
2019-06-10T02:46:04.440Z,6.30
2019-06-10T02:48:35.099Z,6.40
2019-06-10T02:51:05.228Z,8.03
2019-06-10T02:53:35.906Z,6.85
2019-06-10T02:56:06.645Z,7.50
2019-06-10T03:01:05.293Z,5.28
2019-06-10T03:03:42.624Z,5.78
2019-06-10T03:06:07.831Z,7.00
2019-06-10T03:11:04.000Z,7.85
2019-06-10T03:13:33.158Z,5.92
2019-06-10T03:16:09.517Z,6.03
2019-06-10T03:18:38.136Z,6.85
2019-06-10T03:21:06.853Z,7.22
2019-06-10T03:23:35.237Z,7.70
2019-06-10T03:26:04.321Z,6.72
2019-06-10T03:28:32.919Z,8.33
2019-06-10T03:31:05.576Z,7.37
2019-06-10T03:33:40.714Z,7.25
2019-06-10T03:36:05.844Z,7.53
2019-06-10T03:38:37.001Z,7.95
2019-06-10T03:41:04.360Z,7.75
2019-06-10T03:43:33.186Z,8.58
2019-06-10T03:46:03.127Z,9.68
2019-06-10T03:48:32.825Z,7.72
2019-06-10T03:51:03.357Z,8.28
2019-06-10T03:53:33.730Z,8.05
2019-06-10T03:56:02.637Z,8.10
2019-06-10T03:58:32.798Z,8.45
2019-06-10T04:01:03.093Z,7.58
2019-06-10T04:03:33.823Z,8.28
2019-06-10T04:06:02.371Z,7.67
2019-06-10T04:08:32.851Z,7.45
2019-06-10T04:11:02.913Z,6.53
2019-06-10T04:13:33.805Z,7.83
2019-06-10T04:16:02.529Z,7.33
2019-06-10T04:18:32.757Z,5.22
2019-06-10T04:21:02.343Z,7.37
2019-06-10T04:23:33.262Z,7.37
2019-06-10T04:26:02.283Z,7.87
2019-06-10T04:28:33.528Z,6.10
2019-06-10T04:31:02.563Z,6.35
2019-06-10T04:33:32.960Z,6.62
2019-06-10T04:36:02.877Z,7.97
2019-06-10T04:38:32.700Z,7.70
2019-06-10T04:41:03.300Z,6.00
2019-06-10T04:43:32.526Z,5.50
2019-06-10T04:46:02.428Z,6.08
2019-06-10T04:48:32.796Z,4.28
2019-06-10T04:51:02.674Z,4.12
2019-06-10T04:53:32.927Z,5.08
2019-06-10T04:56:03.037Z,5.62
2019-06-10T04:58:33.525Z,5.20
2019-06-10T05:01:03.037Z,5.50
2019-06-10T05:03:33.204Z,6.33
2019-06-10T05:06:03.279Z,5.92
2019-06-10T05:08:33.647Z,5.50
2019-06-10T05:11:03.715Z,6.00
2019-06-10T05:13:33.525Z,5.45
2019-06-10T05:16:03.619Z,7.65
2019-06-10T05:18:33.244Z,7.12
2019-06-10T05:21:02.855Z,5.07
2019-06-10T05:23:32.840Z,6.58
2019-06-10T05:26:02.802Z,5.53
2019-06-10T05:28:34.064Z,6.05
2019-06-10T05:31:02.823Z,5.75
2019-06-10T05:33:33.486Z,4.72
2019-06-10T05:36:03.091Z,4.97
2019-06-10T05:38:35.172Z,5.50
2019-06-10T05:41:02.882Z,5.10
2019-06-10T05:43:34.318Z,4.85
2019-06-10T05:46:02.911Z,4.67
2019-06-10T05:48:33.581Z,4.15
2019-06-10T05:51:05.706Z,3.85
2019-06-10T05:53:35.355Z,3.50
2019-06-10T05:56:03.585Z,3.27
2019-06-10T05:58:34.090Z,4.08
2019-06-10T06:01:02.686Z,3.37
2019-06-10T06:03:35.092Z,3.00
2019-06-10T06:06:03.141Z,2.80
2019-06-10T06:08:33.351Z,3.27
2019-06-10T06:11:03.239Z,4.00
2019-06-10T06:13:33.926Z,3.17
2019-06-10T06:16:03.264Z,3.50
2019-06-10T06:18:34.327Z,3.27
2019-06-10T06:21:19.939Z,3.75
2019-06-10T06:23:33.864Z,3.62
2019-06-10T06:26:03.935Z,3.12
2019-06-10T06:28:34.669Z,3.15
2019-06-10T06:31:03.375Z,3.58
2019-06-10T06:33:36.805Z,3.05
2019-06-10T06:36:03.773Z,3.12
2019-06-10T06:38:35.202Z,3.83
2019-06-10T06:41:03.226Z,2.72
2019-06-10T06:43:36.428Z,3.80
2019-06-10T06:46:02.643Z,3.67
2019-06-10T06:48:35.636Z,3.77
2019-06-10T06:51:07.474Z,3.95
2019-06-10T06:53:42.180Z,4.20
2019-06-10T06:56:03.658Z,4.20
2019-06-10T06:58:33.916Z,3.60
2019-06-10T07:01:10.052Z,3.45
2019-06-10T07:03:35.296Z,3.85
2019-06-10T07:06:02.875Z,3.92
2019-06-10T07:08:36.044Z,3.60
2019-06-10T07:11:04.301Z,3.58
2019-06-10T07:13:37.114Z,3.87
2019-06-10T07:16:04.282Z,3.75
2019-06-10T07:18:34.604Z,3.98
2019-06-10T07:21:02.837Z,4.47
2019-06-10T07:23:35.444Z,4.37
2019-06-10T07:26:02.435Z,5.60
2019-06-10T07:28:34.210Z,6.15
2019-06-10T07:31:03.313Z,5.15
2019-06-10T07:33:34.815Z,6.95
2019-06-10T07:36:03.296Z,4.85
2019-06-10T07:38:34.002Z,5.62
2019-06-10T07:41:02.547Z,5.35
2019-06-10T07:43:33.192Z,5.75
2019-06-10T07:46:03.377Z,6.08
2019-06-10T07:48:33.507Z,6.20
2019-06-10T07:53:33.131Z,6.17
2019-06-10T07:56:03.370Z,6.75
2019-06-10T07:58:35.131Z,6.90
2019-06-10T08:01:03.583Z,7.30
2019-06-10T08:03:34.913Z,6.47
2019-06-10T08:06:03.544Z,6.72
2019-06-10T08:08:32.940Z,7.08
2019-06-10T08:11:03.400Z,7.83
2019-06-10T08:13:32.243Z,6.83
2019-06-10T08:16:02.792Z,6.58
2019-06-10T08:18:38.624Z,7.80
2019-06-10T08:21:03.190Z,7.03
2019-06-10T08:23:32.856Z,6.83
2019-06-10T08:26:03.426Z,7.72
2019-06-10T08:28:33.249Z,7.35
2019-06-10T08:31:03.649Z,7.97
2019-06-10T08:33:33.090Z,7.80
2019-06-10T08:36:03.925Z,8.23
2019-06-10T08:41:03.118Z,9.50
2019-06-10T08:43:33.122Z,9.40
2019-06-10T08:46:02.734Z,8.90
2019-06-10T08:48:32.967Z,8.55
2019-06-10T08:51:03.965Z,7.95
2019-06-10T08:53:33.180Z,6.40
2019-06-10T08:56:02.817Z,7.10
2019-06-10T08:58:33.133Z,7.47
2019-06-10T09:01:02.451Z,7.80
2019-06-10T09:03:32.412Z,6.45
2019-06-10T09:06:02.690Z,7.08
2019-06-10T09:08:32.660Z,7.28
2019-06-10T09:11:02.343Z,6.40
2019-06-10T09:13:33.341Z,6.90
2019-06-10T09:16:12.918Z,6.30
2019-06-10T09:18:33.866Z,5.65
2019-06-10T09:21:02.286Z,5.17
2019-06-10T09:23:33.834Z,6.05
2019-06-10T09:26:03.574Z,7.40
2019-06-10T09:28:32.790Z,5.92
2019-06-10T09:31:03.967Z,4.60
2019-06-10T09:33:33.112Z,5.83
2019-06-10T09:36:03.258Z,6.72
2019-06-10T09:38:33.451Z,5.37
2019-06-10T09:41:05.955Z,3.60
2019-06-10T09:43:33.221Z,4.00
2019-06-10T09:46:03.546Z,4.25
2019-06-10T09:48:33.654Z,4.28
2019-06-10T09:51:02.657Z,4.47
2019-06-10T09:53:41.360Z,4.22
2019-06-10T09:56:04.170Z,3.50
2019-06-10T09:58:33.040Z,4.55
2019-06-10T10:01:03.229Z,2.77
2019-06-10T10:03:32.899Z,3.52
2019-06-10T10:06:11.655Z,3.52
2019-06-10T10:08:33.553Z,3.17
2019-06-10T10:11:01.949Z,3.37
2019-06-10T10:13:34.930Z,2.80
2019-06-10T10:16:02.542Z,3.27
2019-06-10T10:18:33.398Z,2.90
2019-06-10T10:21:03.871Z,3.30
2019-06-10T10:23:49.502Z,3.10
2019-06-10T10:26:03.400Z,2.80
2019-06-10T10:28:33.417Z,2.75
2019-06-10T10:31:04.369Z,2.60
2019-06-10T10:33:33.335Z,4.00
2019-06-10T10:36:02.766Z,3.60
2019-06-10T10:38:34.548Z,3.02
2019-06-10T10:41:04.699Z,3.58
2019-06-10T10:43:37.452Z,2.98
2019-06-10T10:46:05.589Z,2.40
2019-06-10T10:48:34.290Z,3.42
2019-06-10T10:51:03.847Z,2.47
2019-06-10T10:53:33.003Z,3.13
2019-06-10T10:56:03.199Z,2.80
2019-06-10T10:58:33.066Z,2.83
2019-06-10T11:01:03.997Z,3.30
2019-06-10T11:06:01.536Z,3.87
2019-06-10T11:08:32.360Z,4.37
2019-06-10T11:13:34.404Z,3.55
2019-06-10T11:16:03.551Z,3.70
2019-06-10T11:18:33.952Z,3.87
2019-06-10T11:21:05.197Z,3.42
2019-06-10T11:23:34.226Z,4.00
2019-06-10T11:26:03.303Z,4.33
2019-06-10T11:28:32.275Z,3.83
2019-06-10T11:31:03.623Z,4.15
2019-06-10T11:33:32.897Z,3.67
2019-06-10T11:36:02.922Z,3.65
2019-06-10T11:41:00.912Z,3.40
2019-06-10T11:43:29.593Z,3.47
2019-06-10T11:46:03.504Z,3.40
2019-06-10T11:48:28.875Z,2.92
2019-06-10T11:51:00.231Z,3.12
2019-06-10T11:53:28.758Z,3.62
2019-06-10T11:55:57.996Z,3.95
2019-06-10T11:58:26.554Z,3.52
2019-06-10T12:00:58.482Z,4.15
2019-06-10T12:03:25.126Z,3.85
2019-06-10T12:05:57.053Z,3.27
2019-06-10T12:08:23.914Z,4.47
2019-06-10T12:10:57.285Z,3.55
2019-06-10T12:13:22.767Z,3.75
2019-06-10T12:16:32.816Z,3.60
2019-06-10T12:18:22.929Z,3.27
2019-06-10T12:20:55.998Z,2.92
2019-06-10T12:23:22.201Z,4.62
2019-06-10T12:25:54.590Z,4.10
2019-06-10T12:28:21.056Z,3.58
2019-06-10T12:30:51.222Z,4.05
2019-06-10T12:33:22.233Z,3.75
2019-06-10T12:35:51.041Z,3.98
2019-06-10T12:38:22.493Z,4.17
2019-06-10T12:40:50.140Z,3.90
2019-06-10T12:43:18.548Z,4.08
2019-06-10T12:45:46.964Z,3.62
2019-06-10T12:48:15.360Z,4.12
2019-06-10T12:50:43.764Z,3.50
2019-06-10T12:53:12.607Z,3.47
2019-06-10T12:55:44.489Z,3.90
2019-06-10T12:58:11.252Z,4.70
2019-06-10T13:00:45.051Z,3.67
2019-06-10T13:03:13.438Z,3.30
2019-06-10T13:05:43.694Z,3.60
2019-06-10T13:08:14.689Z,3.50
2019-06-10T13:10:44.644Z,3.75
2019-06-10T13:13:13.103Z,3.08
2019-06-10T13:15:43.398Z,3.80
2019-06-10T13:18:18.845Z,3.30
2019-06-10T13:23:20.342Z,3.52
2019-06-10T13:25:53.483Z,3.08
2019-06-10T13:28:11.897Z,3.35
2019-06-10T13:30:42.605Z,3.85
2019-06-10T13:33:13.957Z,3.85
2019-06-10T13:35:41.739Z,3.55
2019-06-10T13:38:11.119Z,3.95
2019-06-10T13:40:39.881Z,3.67
2019-06-10T13:43:08.267Z,3.22
2019-06-10T13:45:36.880Z,3.55
2019-06-10T13:48:08.405Z,3.80
2019-06-10T13:50:35.388Z,3.83
2019-06-10T13:53:05.397Z,3.80
2019-06-10T13:55:33.988Z,3.62
2019-06-10T13:58:06.226Z,3.67
2019-06-10T14:00:42.783Z,3.65
2019-06-10T14:03:06.295Z,3.65
2019-06-10T14:05:34.452Z,3.67
2019-06-10T14:08:05.868Z,4.03
2019-06-10T14:10:33.430Z,4.03
2019-06-10T14:13:03.996Z,4.17
2019-06-10T14:15:32.958Z,3.58
2019-06-10T14:18:05.186Z,3.90
2019-06-10T14:20:35.980Z,3.55
2019-06-10T14:23:04.113Z,3.27
2019-06-10T14:25:33.138Z,4.25
2019-06-10T14:28:05.205Z,3.40
2019-06-10T14:30:32.345Z,4.40
2019-06-10T14:33:02.814Z,4.17
2019-06-10T14:35:33.109Z,4.75
2019-06-10T14:38:03.227Z,4.53
2019-06-10T14:40:32.510Z,4.37
2019-06-10T14:43:01.115Z,4.10
2019-06-10T14:45:29.521Z,4.83
2019-06-10T14:47:58.813Z,5.42
2019-06-10T14:50:28.781Z,5.20
2019-06-10T14:52:57.235Z,5.55
2019-06-10T14:55:25.636Z,5.05
2019-06-10T14:57:54.048Z,4.90
2019-06-10T15:00:23.952Z,4.22
2019-06-10T15:02:53.798Z,3.83
2019-06-10T15:05:23.307Z,4.00
2019-06-10T15:07:52.858Z,4.78
2019-06-10T15:10:23.342Z,3.33
2019-06-10T15:12:52.878Z,3.85
2019-06-10T15:15:23.717Z,3.33
2019-06-10T15:20:22.735Z,4.22
2019-06-10T15:22:52.654Z,4.95
2019-06-10T15:25:25.409Z,5.75
2019-06-10T15:27:52.688Z,5.67
2019-06-10T15:30:26.623Z,5.60
2019-06-10T15:32:52.436Z,5.85
2019-06-10T15:35:24.241Z,5.53
2019-06-10T15:37:52.825Z,5.60
2019-06-10T15:40:23.113Z,6.10
2019-06-10T15:42:53.247Z,5.97
2019-06-10T15:45:22.535Z,5.22
2019-06-10T15:47:52.972Z,5.35
2019-06-10T15:50:23.334Z,5.00
2019-06-10T15:52:52.388Z,5.03
2019-06-10T15:55:37.815Z,5.58
2019-06-10T15:57:51.164Z,5.70
2019-06-10T16:00:24.266Z,4.95
2019-06-10T16:02:50.597Z,5.78
2019-06-10T16:05:21.230Z,5.95
2019-06-10T16:07:52.846Z,4.78
2019-06-10T16:10:27.350Z,6.28
2019-06-10T16:12:52.795Z,5.30
2019-06-10T16:15:24.822Z,4.30
2019-06-10T16:17:53.540Z,5.15
2019-06-10T16:20:23.469Z,4.85
2019-06-10T16:22:52.472Z,4.15
2019-06-10T16:25:23.497Z,4.30
2019-06-10T16:27:54.324Z,6.00
2019-06-10T16:30:23.217Z,4.70
2019-06-10T16:35:23.508Z,5.08
2019-06-10T16:37:55.790Z,4.97
2019-06-10T16:40:24.274Z,4.95
2019-06-10T16:42:53.323Z,3.87
2019-06-10T16:45:27.647Z,4.55
2019-06-10T16:47:53.056Z,3.85
2019-06-10T16:50:24.033Z,3.80
2019-06-10T16:53:13.736Z,4.20
2019-06-10T16:55:41.342Z,4.80
2019-06-10T16:58:09.809Z,3.55
2019-06-10T17:00:38.213Z,4.47
2019-06-10T17:03:06.605Z,4.10
2019-06-10T17:05:35.007Z,4.05
2019-06-10T17:08:03.645Z,3.90
2019-06-10T17:10:34.455Z,4.20
2019-06-10T17:13:03.804Z,4.75
2019-06-10T17:15:33.784Z,4.53
2019-06-10T17:18:02.866Z,4.22
2019-06-10T17:20:34.168Z,4.22
2019-06-10T17:23:03.274Z,4.58
2019-06-10T17:25:33.789Z,4.15
2019-06-10T17:28:15.101Z,4.20
2019-06-10T17:30:34.618Z,4.83
2019-06-10T17:33:02.404Z,4.15
2019-06-10T17:35:36.449Z,4.60
2019-06-10T17:38:02.756Z,5.03
2019-06-10T17:40:33.648Z,4.25
2019-06-10T17:43:02.390Z,4.45
2019-06-10T17:45:32.072Z,4.85
2019-06-10T17:48:02.974Z,4.97
2019-06-10T17:50:32.851Z,5.80
2019-06-10T17:53:02.614Z,5.70
2019-06-10T17:55:34.121Z,5.97
2019-06-10T17:58:02.930Z,5.50
2019-06-10T18:00:34.447Z,5.25
2019-06-10T18:03:03.700Z,5.25
2019-06-10T18:05:31.722Z,4.75
2019-06-10T18:08:02.268Z,4.35
2019-06-10T18:10:33.099Z,5.25
2019-06-10T18:13:12.726Z,5.08
2019-06-10T18:15:34.272Z,4.70
2019-06-10T18:18:03.315Z,4.95
2019-06-10T18:20:33.557Z,5.75
2019-06-10T18:23:02.737Z,4.55
2019-06-10T18:25:33.557Z,5.08
2019-06-10T18:28:02.800Z,4.67
2019-06-10T18:30:34.621Z,4.83
2019-06-10T18:33:02.880Z,5.28
2019-06-10T18:35:34.143Z,5.90
2019-06-10T18:38:02.362Z,5.00
2019-06-10T18:40:31.781Z,5.35
2019-06-10T18:43:02.718Z,5.15
2019-06-10T18:45:33.008Z,5.25
2019-06-10T18:48:00.661Z,5.67
2019-06-10T18:50:30.297Z,4.85
2019-06-10T18:53:00.688Z,4.10
2019-06-10T18:55:29.202Z,4.42
2019-06-10T18:57:57.883Z,4.53
2019-06-10T19:00:26.506Z,4.85
2019-06-10T19:03:09.181Z,4.40
2019-06-10T19:05:25.008Z,4.70
2019-06-10T19:07:53.404Z,4.65
2019-06-10T19:10:23.050Z,3.95
2019-06-10T19:12:53.190Z,4.20
2019-06-10T19:15:21.767Z,3.15
2019-06-10T19:17:50.329Z,5.42
2019-06-10T19:20:19.755Z,6.25
2019-06-10T19:22:48.207Z,6.75
2019-06-10T19:25:17.621Z,6.17
2019-06-10T19:27:46.028Z,5.72
2019-06-10T19:30:15.452Z,3.85
2019-06-10T19:32:44.444Z,4.47
2019-06-10T19:35:13.205Z,4.33
2019-06-10T19:37:42.363Z,4.15
2019-06-10T19:40:12.428Z,4.12
2019-06-10T19:42:43.364Z,4.12
2019-06-10T19:45:12.518Z,3.95
2019-06-10T19:47:44.097Z,3.65
2019-06-10T19:50:12.326Z,4.33
2019-06-10T19:52:43.266Z,3.67
2019-06-10T19:55:13.347Z,4.17
2019-06-10T19:57:41.861Z,4.90
2019-06-10T20:00:12.645Z,4.53
2019-06-10T20:02:44.531Z,4.45
2019-06-10T20:05:12.569Z,5.17
2019-06-10T20:07:46.993Z,4.22
2019-06-10T20:10:13.188Z,4.60
2019-06-10T20:12:44.834Z,4.37
2019-06-10T20:17:52.529Z,4.45
2019-06-10T20:20:22.734Z,4.20
2019-06-10T20:22:53.000Z,4.00
2019-06-10T20:25:22.299Z,3.85
2019-06-10T20:27:52.414Z,4.62
2019-06-10T20:30:28.254Z,4.50
2019-06-10T20:32:55.686Z,4.05
2019-06-10T20:35:23.243Z,4.58
2019-06-10T20:37:54.327Z,4.05
2019-06-10T20:40:22.810Z,4.22
2019-06-10T20:42:51.182Z,3.90
2019-06-10T20:45:19.969Z,4.03
2019-06-10T20:47:53.297Z,4.90
2019-06-10T20:50:21.767Z,3.60
2019-06-10T20:52:52.350Z,4.80
2019-06-10T20:55:23.152Z,4.00
2019-06-10T20:58:02.796Z,4.22
2019-06-10T21:00:33.594Z,3.95
2019-06-10T21:03:03.238Z,3.92
2019-06-10T21:05:33.290Z,4.17
2019-06-10T21:08:04.000Z,4.58
2019-06-10T21:10:36.965Z,4.92
2019-06-10T21:13:06.545Z,4.33
2019-06-10T21:15:37.565Z,4.53
2019-06-10T21:18:06.284Z,4.97
2019-06-10T21:20:34.684Z,4.65
2019-06-10T21:23:03.471Z,4.15
2019-06-10T21:25:32.629Z,5.20
2019-06-10T21:28:03.369Z,4.45
2019-06-10T21:30:41.171Z,3.92
2019-06-10T21:33:03.663Z,4.78
2019-06-10T21:35:34.546Z,5.17
2019-06-10T21:38:03.456Z,3.92
2019-06-10T21:40:33.063Z,4.97
2019-06-10T21:43:02.823Z,4.97
2019-06-10T21:45:32.675Z,4.40
2019-06-10T21:48:02.409Z,3.27
2019-06-10T21:50:33.400Z,3.50
2019-06-10T21:53:02.910Z,4.78
2019-06-10T21:55:33.137Z,4.92
2019-06-10T21:58:03.813Z,4.80
2019-06-10T22:00:53.899Z,4.45
2019-06-10T22:03:12.674Z,5.08
2019-06-10T22:05:43.770Z,4.20
2019-06-10T22:08:12.494Z,5.15
2019-06-10T22:10:42.454Z,4.97
2019-06-10T22:13:12.283Z,5.12
2019-06-10T22:15:42.434Z,4.77
2019-06-10T22:18:12.618Z,5.15
2019-06-10T22:20:43.041Z,5.78
2019-06-10T22:23:12.820Z,5.50
2019-06-10T22:25:42.771Z,4.67
2019-06-10T22:28:13.072Z,4.78
2019-06-10T22:30:43.297Z,3.70
2019-06-10T22:35:42.489Z,6.67
2019-06-10T22:38:13.055Z,5.10
2019-06-10T22:40:42.652Z,5.70
2019-06-10T22:43:12.994Z,6.03
2019-06-10T22:45:42.430Z,4.53
2019-06-10T22:48:12.058Z,6.42
2019-06-10T22:50:43.699Z,5.70
2019-06-10T22:53:12.569Z,4.50
2019-06-10T22:55:43.185Z,6.20
2019-06-10T22:58:14.242Z,7.05
2019-06-10T23:00:43.765Z,6.72
2019-06-10T23:03:13.054Z,7.80
2019-06-10T23:05:43.326Z,7.67
2019-06-10T23:08:12.622Z,6.85
2019-06-10T23:10:42.924Z,8.25
2019-06-10T23:13:14.030Z,9.18
2019-06-10T23:15:43.118Z,7.78
2019-06-10T23:18:12.729Z,9.35
2019-06-10T23:20:42.703Z,10.93
2019-06-10T23:23:12.724Z,8.80
2019-06-10T23:25:42.997Z,11.73
2019-06-10T23:28:12.944Z,7.60
2019-06-10T23:30:42.693Z,11.28
2019-06-10T23:33:12.457Z,9.53
2019-06-10T23:35:42.969Z,8.87
2019-06-10T23:38:13.236Z,7.35
2019-06-10T23:40:42.988Z,9.40
2019-06-10T23:43:13.186Z,8.10
2019-06-10T23:45:42.302Z,9.05
2019-06-10T23:48:13.150Z,8.60
2019-06-10T23:50:43.510Z,10.32
2019-06-10T23:53:13.191Z,10.48
2019-06-10T23:55:42.805Z,10.90
2019-06-10T23:58:12.971Z,8.88
